Time;durP1;ratioP1;P1;durP2;ratioP2;P2;SDS_P1;SDS_P2;PMS_P1;PMS_P2;Temp;Humidity;BMP_temperature;BMP_pressure;BME280_temperature;BME280_humidity;BME280_pressure;Samples;Min_cycle;Max_cycle;Signal;HPM_P1;HPM_P2
2024/02/14 00:00:20;;;;;;;7.28;5.43;;;;;;;5.97;90.70;98518.13;5162884;23;20657;-83
2024/02/14 00:02:25;;;;;;;7.30;5.05;;;;;;;5.93;90.61;98519.16;5163049;23;20188;-83
2024/02/14 00:04:29;;;;;;;7.90;5.00;;;;;;;5.91;90.49;98508.88;5138608;23;20193;-83
2024/02/14 00:06:37;;;;;;;6.93;4.78;;;;;;;5.89;90.43;98515.03;5163067;23;20189;-83
2024/02/14 00:08:40;;;;;;;6.57;4.75;;;;;;;5.85;91.01;98521.22;5136689;23;20228;-83
2024/02/14 00:10:44;;;;;;;11.85;5.72;;;;;;;5.84;90.23;98514.38;5136900;23;20177;-84
2024/02/14 00:12:48;;;;;;;8.68;5.70;;;;;;;5.80;90.62;98512.84;5189764;22;20177;-84
2024/02/14 00:14:52;;;;;;;7.95;4.78;;;;;;;5.80;90.74;98515.41;5137243;23;20190;-84
2024/02/14 00:16:55;;;;;;;5.47;4.88;;;;;;;5.79;90.25;98517.19;5161988;23;20304;-83
2024/02/14 00:18:59;;;;;;;6.65;4.78;;;;;;;5.76;91.10;98516.47;5162427;23;20236;-83
2024/02/14 00:21:02;;;;;;;5.50;4.55;;;;;;;5.76;90.97;98519.06;5138330;23;20206;-84
2024/02/14 00:23:07;;;;;;;9.30;5.20;;;;;;;5.73;91.15;98508.81;5137939;23;20178;-83
2024/02/14 00:25:10;;;;;;;7.68;4.72;;;;;;;5.71;91.19;98510.59;5162606;23;20201;-83
2024/02/14 00:27:14;;;;;;;6.47;4.60;;;;;;;5.70;91.19;98509.78;5162431;23;20584;-87
2024/02/14 00:29:18;;;;;;;7.07;5.03;;;;;;;5.71;91.17;98515.78;5137575;23;20223;-88
2024/02/14 00:31:21;;;;;;;6.32;4.93;;;;;;;5.71;91.90;98511.47;5161839;23;20974;-87
2024/02/14 00:33:35;;;;;;;8.90;5.30;;;;;;;5.72;91.23;98520.88;5163197;23;20264;-86
2024/02/14 00:35:38;;;;;;;7.00;4.95;;;;;;;5.72;91.74;98515.72;5162741;23;20186;-88
2024/02/14 00:37:42;;;;;;;8.35;5.20;;;;;;;5.73;91.15;98513.97;5161969;23;20181;-87
2024/02/14 00:39:48;;;;;;;7.75;5.10;;;;;;;5.70;91.27;98519.28;5137522;23;20206;-88
2024/02/14 00:41:52;;;;;;;9.70;4.38;;;;;;;5.67;91.07;98519.41;5159735;23;20173;-87
2024/02/14 00:43:56;;;;;;;6.13;4.57;;;;;;;5.67;91.66;98522.84;5160460;23;20687;-87
2024/02/14 00:45:59;;;;;;;6.82;4.70;;;;;;;5.65;91.48;98523.78;5137112;23;20173;-88
2024/02/14 00:48:03;;;;;;;7.43;4.68;;;;;;;5.63;91.16;98520.44;5188674;22;20173;-88
2024/02/14 00:50:08;;;;;;;6.55;4.20;;;;;;;5.61;91.11;98519.66;5162213;23;20200;-87
2024/02/14 00:52:11;;;;;;;10.68;4.95;;;;;;;5.60;91.40;98516.22;5137453;23;20753;-88
2024/02/14 00:54:14;;;;;;;5.60;4.10;;;;;;;5.61;91.28;98517.09;5161649;23;20641;-87
2024/02/14 00:56:19;;;;;;;7.72;4.50;;;;;;;5.59;90.89;98521.47;5137821;23;20182;-86
2024/02/14 00:58:22;;;;;;;5.07;3.95;;;;;;;5.59;91.11;98518.88;5162257;23;20652;-87
2024/02/14 01:00:25;;;;;;;6.22;4.60;;;;;;;5.56;91.03;98519.00;5189557;22;20176;-87
2024/02/14 01:02:27;;;;;;;4.95;4.13;;;;;;;5.55;91.78;98521.66;5189746;22;20165;-88
2024/02/14 01:04:31;;;;;;;6.05;4.78;;;;;;;5.53;91.63;98521.72;5163239;23;20569;-87
2024/02/14 01:06:34;;;;;;;6.00;4.15;;;;;;;5.55;91.62;98525.09;5139007;23;20202;-87
2024/02/14 01:08:37;;;;;;;6.07;4.15;;;;;;;5.55;92.46;98526.81;5137963;23;20539;-89
2024/02/14 01:10:41;;;;;;;7.55;4.57;;;;;;;5.56;92.20;98529.34;5165344;23;20256;-88
2024/02/14 01:12:46;;;;;;;6.53;4.20;;;;;;;5.57;92.31;98527.63;5138036;23;20559;-88
2024/02/14 01:14:49;;;;;;;5.55;4.25;;;;;;;5.59;92.61;98533.56;5163380;23;20602;-88
2024/02/14 01:16:53;;;;;;;8.80;4.47;;;;;;;5.60;92.57;98527.50;5163768;23;20177;-87
2024/02/14 01:18:57;;;;;;;5.50;3.90;;;;;;;5.59;92.87;98528.38;5138117;23;20547;-87
2024/02/14 01:21:00;;;;;;;8.63;4.47;;;;;;;5.56;92.98;98531.09;5138911;23;20631;-87
2024/02/14 01:23:04;;;;;;;6.00;3.88;;;;;;;5.57;92.58;98525.88;5165177;23;20534;-87
2024/02/14 01:25:18;;;;;;;6.53;4.05;;;;;;;5.58;92.91;98531.88;5166576;22;20198;-86
2024/02/14 01:27:22;;;;;;;5.75;5.03;;;;;;;5.58;92.92;98524.13;5138697;23;20236;-87
2024/02/14 01:29:27;;;;;;;7.13;3.83;;;;;;;5.58;92.86;98537.03;5138844;23;20570;-87
2024/02/14 01:31:31;;;;;;;5.03;3.80;;;;;;;5.59;93.06;98536.97;5164138;23;20174;-86
2024/02/14 01:33:34;;;;;;;10.20;3.97;;;;;;;5.61;92.42;98538.59;5164007;23;20186;-87
2024/02/14 01:35:37;;;;;;;5.03;3.42;;;;;;;5.61;93.27;98535.19;5138776;23;20541;-87
2024/02/14 01:37:40;;;;;;;6.78;3.80;;;;;;;5.61;93.28;98533.44;5164051;23;20177;-87
2024/02/14 01:39:44;;;;;;;7.40;4.70;;;;;;;5.63;93.51;98534.19;5138783;23;20412;-88
2024/02/14 01:41:48;;;;;;;6.70;3.97;;;;;;;5.66;93.68;98528.91;5164137;23;20166;-88
2024/02/14 01:43:51;;;;;;;5.00;3.92;;;;;;;5.68;93.38;98524.53;5163642;23;20185;-88
2024/02/14 01:45:57;;;;;;;6.35;4.68;;;;;;;5.70;93.26;98527.88;5138775;23;20202;-88
2024/02/14 01:48:00;;;;;;;6.88;4.30;;;;;;;5.72;93.58;98528.66;5138318;23;20585;-88
2024/02/14 01:50:05;;;;;;;7.03;4.20;;;;;;;5.74;93.49;98534.66;5139012;23;20237;-87
2024/02/14 01:52:09;;;;;;;6.05;4.50;;;;;;;5.74;93.51;98528.63;5138796;23;20185;-88
2024/02/14 01:54:13;;;;;;;6.20;4.10;;;;;;;5.74;93.17;98528.63;5164100;23;20177;-88
2024/02/14 01:56:16;;;;;;;5.93;3.92;;;;;;;5.77;93.03;98533.66;5163310;23;20683;-87
2024/02/14 01:58:19;;;;;;;4.53;3.42;;;;;;;5.74;93.36;98526.03;5137799;23;20179;-87
2024/02/14 02:00:22;;;;;;;5.75;3.80;;;;;;;5.74;92.96;98529.47;5139261;23;20178;-87
2024/02/14 02:02:27;;;;;;;6.85;3.65;;;;;;;5.72;92.88;98526.06;5163864;23;20174;-88
2024/02/14 02:04:29;;;;;;;7.30;3.80;;;;;;;5.75;92.97;98525.13;5190409;22;20655;-87
2024/02/14 02:06:33;;;;;;;5.85;4.40;;;;;;;5.69;93.03;98518.44;5139465;23;20278;-87
2024/02/14 02:08:36;;;;;;;5.15;3.78;;;;;;;5.69;92.80;98518.44;5162355;23;20177;-88
2024/02/14 02:10:39;;;;;;;5.35;4.07;;;;;;;5.71;93.28;98528.72;5163431;23;20181;-88
2024/02/14 02:13:05;;;;;;;5.97;4.10;;;;;;;5.71;93.75;98523.53;5165056;22;20174;-87
2024/02/14 02:15:29;;;;;;;8.13;4.05;;;;;;;5.73;93.58;98521.75;5188874;22;20181;-89
2024/02/14 02:17:54;;;;;;;5.65;3.63;;;;;;;5.74;93.76;98519.13;5165921;22;20185;-87
2024/02/14 02:20:18;;;;;;;7.45;3.67;;;;;;;5.74;93.80;98524.31;5165751;22;20248;-88
2024/02/14 02:22:20;;;;;;;5.30;3.70;;;;;;;5.77;93.55;98528.47;5163411;23;20244;-86
2024/02/14 02:24:45;;;;;;;4.90;3.70;;;;;;;5.74;94.61;98521.72;5146783;22;20881;-87
2024/02/14 02:26:48;;;;;;;5.63;3.63;;;;;;;5.80;93.90;98525.78;5137758;23;20263;-87
2024/02/14 02:29:11;;;;;;;5.93;3.80;;;;;;;5.79;93.96;98526.69;5167108;22;20166;-87
2024/02/14 02:31:15;;;;;;;5.40;3.47;;;;;;;5.81;94.09;98524.88;5137232;23;20179;-87
2024/02/14 02:33:21;;;;;;;6.22;3.83;;;;;;;5.84;93.76;98517.81;5161997;23;20697;-87
2024/02/14 02:35:25;;;;;;;8.70;3.92;;;;;;;5.85;93.79;98516.91;5137822;23;20638;-87
2024/02/14 02:37:50;;;;;;;5.07;3.72;;;;;;;5.88;93.81;98518.50;5166437;22;20181;-88
2024/02/14 02:40:03;;;;;;;5.57;3.60;;;;;;;5.87;93.96;98515.09;5163480;23;20668;-87
2024/02/14 02:42:35;;;;;;;6.50;3.40;;;;;;;5.89;93.73;98505.50;5189507;22;20173;-87
2024/02/14 02:44:58;;;;;;;4.13;3.60;;;;;;;5.88;93.86;98511.59;5167253;22;20675;-87
2024/02/14 02:47:24;;;;;;;8.13;4.43;;;;;;;5.89;94.04;98513.25;5190408;22;20182;-83
2024/02/14 02:49:47;;;;;;;5.05;3.95;;;;;;;5.91;93.90;98506.31;5167623;22;20180;-83
2024/02/14 02:52:11;;;;;;;6.55;4.75;;;;;;;5.89;94.33;98495.16;5190407;22;20481;-83
2024/02/14 02:54:23;;;;;;;7.18;4.70;;;;;;;5.88;93.99;98490.03;5162499;23;20245;-84
2024/02/14 02:56:46;;;;;;;10.25;4.63;;;;;;;5.89;94.17;98496.91;5166715;22;20184;-84
2024/02/14 02:58:50;;;;;;;4.93;3.63;;;;;;;5.91;94.24;98502.84;5162672;23;20690;-83
2024/02/14 03:00:55;;;;;;;6.28;3.75;;;;;;;5.90;93.72;98503.78;5161871;23;20640;-83
2024/02/14 03:03:18;;;;;;;4.72;3.30;;;;;;;5.94;93.79;98500.13;5146554;22;20229;-84
2024/02/14 03:05:39;;;;;;;5.25;3.63;;;;;;;5.96;94.09;98490.56;5140764;23;20288;-84
2024/02/14 03:07:58;;;;;;;5.25;3.75;;;;;;;6.01;94.17;98496.38;5139479;23;20241;-83
2024/02/14 03:10:22;;;;;;;5.75;4.30;;;;;;;6.04;94.29;98497.06;5144930;22;20645;-84
2024/02/14 03:12:48;;;;;;;7.57;5.47;;;;;;;6.03;93.58;98494.56;5167904;22;20255;-83
2024/02/14 03:15:13;;;;;;;6.25;4.30;;;;;;;6.01;92.60;98486.03;5146104;22;20176;-84
2024/02/14 03:17:19;;;;;;;10.43;5.43;;;;;;;6.01;93.58;98483.44;5137641;23;20681;-83
2024/02/14 03:19:22;;;;;;;6.72;4.55;;;;;;;5.98;93.46;98470.63;5162178;23;20177;-84
2024/02/14 03:21:27;;;;;;;6.63;4.80;;;;;;;5.97;93.48;98468.94;5189065;22;20183;-84
2024/02/14 03:23:30;;;;;;;6.35;4.65;;;;;;;5.97;93.04;98459.44;5190207;22;20246;-83
2024/02/14 03:25:36;;;;;;;5.45;4.32;;;;;;;5.95;93.33;98463.81;5137289;23;20253;-84
2024/02/14 03:27:40;;;;;;;6.78;4.63;;;;;;;5.94;93.23;98469.94;5188468;22;20524;-84
2024/02/14 03:29:45;;;;;;;9.55;4.63;;;;;;;5.95;93.57;98476.78;5161080;23;20170;-83
2024/02/14 03:31:48;;;;;;;6.45;4.38;;;;;;;5.96;93.78;98478.47;5188199;22;20176;-83
2024/02/14 03:33:51;;;;;;;9.50;4.00;;;;;;;5.99;94.02;98472.31;5162899;23;20266;-83
2024/02/14 03:35:54;;;;;;;9.20;5.07;;;;;;;5.98;93.69;98483.56;5189775;22;20173;-83
2024/02/14 03:37:58;;;;;;;5.25;3.92;;;;;;;5.99;93.92;98498.19;5161550;23;20180;-84
2024/02/14 03:40:03;;;;;;;5.25;3.80;;;;;;;5.98;93.84;98502.53;5189138;22;20733;-83
2024/02/14 03:42:07;;;;;;;7.95;4.35;;;;;;;5.98;93.69;98497.34;5190289;22;20172;-83
2024/02/14 03:44:11;;;;;;;8.75;4.60;;;;;;;5.98;93.80;98496.50;5138250;23;20217;-83
2024/02/14 03:46:15;;;;;;;6.63;4.13;;;;;;;5.95;93.40;98499.22;5160716;23;20203;-83
2024/02/14 03:48:19;;;;;;;5.68;4.03;;;;;;;5.91;92.98;98508.03;5162123;23;20174;-84
2024/02/14 03:50:22;;;;;;;5.70;4.10;;;;;;;5.89;92.80;98515.03;5138079;23;20256;-83
2024/02/14 03:52:26;;;;;;;7.00;4.15;;;;;;;5.88;93.50;98518.50;5137709;23;20175;-84
2024/02/14 03:54:29;;;;;;;5.38;3.60;;;;;;;5.85;93.33;98529.00;5138157;23;21004;-84
2024/02/14 03:56:33;;;;;;;6.00;4.13;;;;;;;5.84;93.05;98524.75;5161601;23;20184;-87
2024/02/14 03:58:37;;;;;;;7.35;4.22;;;;;;;5.82;93.45;98529.97;5136599;23;20186;-87
2024/02/14 04:00:40;;;;;;;5.68;4.28;;;;;;;5.84;93.34;98541.09;5163880;23;20237;-87
2024/02/14 04:02:44;;;;;;;6.15;3.70;;;;;;;5.86;93.07;98533.28;5137850;23;20171;-87
2024/02/14 04:04:48;;;;;;;9.98;4.70;;;;;;;5.84;93.72;98530.75;5138201;23;20180;-87
2024/02/14 04:06:52;;;;;;;6.70;3.97;;;;;;;5.85;93.86;98529.00;5161792;23;20209;-88
2024/02/14 04:08:55;;;;;;;5.40;3.95;;;;;;;5.86;93.72;98528.09;5162598;23;20171;-88
2024/02/14 04:10:59;;;;;;;5.43;4.40;;;;;;;5.90;94.17;98519.31;5163576;23;20201;-87
2024/02/14 04:13:03;;;;;;;7.47;4.45;;;;;;;5.93;94.50;98521.75;5188739;22;20220;-87
2024/02/14 04:15:09;;;;;;;5.75;4.15;;;;;;;5.95;94.27;98528.53;5163333;23;20650;-87
2024/02/14 04:17:24;;;;;;;6.10;4.28;;;;;;;5.96;94.01;98527.63;5138646;23;20167;-87
2024/02/14 04:19:30;;;;;;;5.88;4.45;;;;;;;5.98;94.04;98536.16;5136566;22;20168;-87
2024/02/14 04:21:34;;;;;;;7.63;4.30;;;;;;;6.00;94.04;98530.91;5137745;23;20261;-87
2024/02/14 04:23:40;;;;;;;5.97;4.28;;;;;;;6.02;94.24;98518.78;5190328;22;20172;-88
2024/02/14 04:25:44;;;;;;;8.52;4.68;;;;;;;6.04;94.65;98511.78;5189633;22;20533;-88
2024/02/14 04:27:48;;;;;;;6.45;4.80;;;;;;;6.04;94.69;98511.78;5161399;23;20170;-87
2024/02/14 04:29:51;;;;;;;5.13;4.25;;;;;;;6.04;94.92;98515.19;5163180;23;20181;-87
2024/02/14 04:31:54;;;;;;;5.03;4.13;;;;;;;6.06;95.00;98520.31;5137422;23;20224;-87
2024/02/14 04:33:57;;;;;;;5.72;4.03;;;;;;;6.07;95.00;98525.41;5163101;23;20188;-88
2024/02/14 04:36:02;;;;;;;7.07;4.60;;;;;;;6.08;94.69;98533.13;5163233;23;20426;-87
2024/02/14 04:38:06;;;;;;;10.25;5.05;;;;;;;6.10;94.43;98533.91;5161625;23;20169;-87
2024/02/14 04:40:10;;;;;;;6.15;4.28;;;;;;;6.13;95.12;98527.72;5137750;23;20642;-87
2024/02/14 04:42:15;;;;;;;9.40;5.05;;;;;;;6.18;95.34;98530.97;5162546;22;20265;-87
2024/02/14 04:44:19;;;;;;;5.60;4.65;;;;;;;6.20;95.18;98530.00;5189022;22;20174;-88
2024/02/14 04:46:23;;;;;;;6.07;4.65;;;;;;;6.18;93.97;98531.81;5187504;22;20237;-87
2024/02/14 04:48:25;;;;;;;8.32;5.03;;;;;;;6.18;94.45;98524.06;5161366;23;20182;-87
2024/02/14 04:50:30;;;;;;;8.02;4.30;;;;;;;6.20;94.54;98526.56;5137720;23;20531;-87
2024/02/14 04:52:36;;;;;;;6.20;4.43;;;;;;;6.23;94.60;98534.19;5136732;23;20183;-88
2024/02/14 04:54:39;;;;;;;5.90;3.70;;;;;;;6.25;94.77;98532.38;5163902;23;20257;-87
2024/02/14 04:56:43;;;;;;;5.75;4.50;;;;;;;6.26;94.28;98529.72;5136252;23;20175;-87
2024/02/14 04:58:48;;;;;;;5.93;4.45;;;;;;;6.28;94.39;98538.25;5137649;22;20174;-89
2024/02/14 05:00:51;;;;;;;6.50;3.80;;;;;;;6.29;94.50;98542.53;5163770;23;20295;-87
2024/02/14 05:02:59;;;;;;;7.63;4.60;;;;;;;6.31;93.93;98537.28;5139903;22;20162;-88
2024/02/14 05:05:03;;;;;;;8.18;4.65;;;;;;;6.32;93.62;98545.00;5136463;23;20182;-88
2024/02/14 05:07:08;;;;;;;9.43;4.68;;;;;;;6.33;94.10;98544.09;5137263;23;20195;-87
2024/02/14 05:09:14;;;;;;;6.38;4.43;;;;;;;6.33;93.94;98541.50;5136731;23;20621;-87
2024/02/14 05:11:18;;;;;;;6.80;4.50;;;;;;;6.35;93.27;98549.19;5137995;23;20258;-88
2024/02/14 05:13:21;;;;;;;6.60;4.15;;;;;;;6.35;93.74;98546.63;5138306;23;20200;-87
2024/02/14 05:15:23;;;;;;;7.22;4.40;;;;;;;6.36;93.56;98545.69;5188731;22;20812;-87
2024/02/14 05:17:27;;;;;;;8.80;4.53;;;;;;;6.36;94.11;98543.09;5136610;23;20695;-88
2024/02/14 05:19:30;;;;;;;8.35;4.43;;;;;;;6.37;94.49;98548.19;5163419;23;20187;-87
2024/02/14 05:21:34;;;;;;;5.97;3.88;;;;;;;6.40;94.38;98547.25;5189831;22;20185;-87
2024/02/14 05:23:37;;;;;;;5.38;4.35;;;;;;;6.40;94.15;98547.25;5190480;22;20202;-88
2024/02/14 05:25:42;;;;;;;7.03;4.80;;;;;;;6.38;94.95;98544.72;5163554;23;20202;-87
2024/02/14 05:27:46;;;;;;;6.18;4.40;;;;;;;6.39;94.52;98559.34;5137952;23;20588;-88
2024/02/14 05:29:49;;;;;;;7.03;4.85;;;;;;;6.43;94.36;98549.69;5162708;23;20767;-87
2024/02/14 05:31:55;;;;;;;7.97;5.18;;;;;;;6.44;94.45;98551.38;5137419;23;20299;-87
2024/02/14 05:33:58;;;;;;;9.43;4.50;;;;;;;6.45;94.35;98551.31;5136926;23;20196;-88
2024/02/14 05:36:02;;;;;;;7.50;4.68;;;;;;;6.47;93.97;98554.66;5161605;23;20265;-87
2024/02/14 05:38:07;;;;;;;5.78;4.70;;;;;;;6.51;93.83;98548.44;5136486;23;20200;-88
2024/02/14 05:40:11;;;;;;;6.22;4.65;;;;;;;6.52;94.60;98547.53;5161954;23;20650;-88
2024/02/14 05:42:16;;;;;;;7.28;4.30;;;;;;;6.54;93.75;98545.72;5137704;23;20178;-88
2024/02/14 05:44:21;;;;;;;8.07;4.90;;;;;;;6.53;94.17;98549.22;5188222;22;20165;-87
2024/02/14 05:46:24;;;;;;;6.95;5.10;;;;;;;6.55;94.56;98552.56;5136208;23;20186;-88
2024/02/14 05:48:27;;;;;;;5.03;4.45;;;;;;;6.57;94.47;98559.38;5161726;23;20618;-87
2024/02/14 05:50:30;;;;;;;5.95;4.50;;;;;;;6.62;94.63;98562.59;5137403;23;20180;-87
2024/02/14 05:52:33;;;;;;;6.07;4.47;;;;;;;6.65;94.09;98551.25;5186731;22;20186;-87
2024/02/14 05:54:36;;;;;;;6.75;4.40;;;;;;;6.70;94.08;98563.06;5164254;23;20237;-88
2024/02/14 05:56:39;;;;;;;10.35;4.68;;;;;;;6.80;94.04;98566.09;5163686;23;20183;-88
2024/02/14 05:58:44;;;;;;;8.13;5.78;;;;;;;6.80;93.76;98568.69;5137787;23;20724;-88
2024/02/14 06:00:47;;;;;;;10.63;8.27;;;;;;;6.78;94.27;98557.53;5138269;23;20228;-87
2024/02/14 06:02:50;;;;;;;10.43;7.70;;;;;;;6.79;94.90;98561.81;5139516;23;20204;-87
2024/02/14 06:04:53;;;;;;;12.52;6.70;;;;;;;6.81;95.33;98544.44;5138764;23;20183;-87
2024/02/14 06:06:56;;;;;;;11.43;5.68;;;;;;;6.85;94.25;98540.81;5189715;22;20266;-88
2024/02/14 06:09:00;;;;;;;10.23;6.78;;;;;;;6.85;94.77;98536.44;5190454;22;20621;-87
2024/02/14 06:11:03;;;;;;;11.52;5.90;;;;;;;6.86;94.74;98545.09;5164306;23;20292;-87
2024/02/14 06:13:06;;;;;;;6.43;3.70;;;;;;;6.92;94.10;98542.22;5138986;23;20172;-88
2024/02/14 06:15:11;;;;;;;7.18;5.85;;;;;;;6.99;93.64;98546.19;5163651;23;20179;-88
2024/02/14 06:17:16;;;;;;;7.53;4.88;;;;;;;7.00;93.86;98550.47;5138338;23;20171;-87
2024/02/14 06:19:19;;;;;;;11.05;5.90;;;;;;;7.05;94.58;98555.34;5138556;23;20261;-87
2024/02/14 06:21:23;;;;;;;10.00;5.72;;;;;;;7.11;94.67;98559.41;5139298;23;20202;-87
2024/02/14 06:23:26;;;;;;;8.00;7.10;;;;;;;7.14;93.74;98560.13;5164653;23;20178;-88
2024/02/14 06:25:29;;;;;;;7.10;4.60;;;;;;;7.22;93.32;98565.78;5163528;23;20237;-87
2024/02/14 06:27:37;;;;;;;6.60;4.78;;;;;;;7.30;93.33;98562.81;5163938;22;20187;-88
2024/02/14 06:29:43;;;;;;;7.15;4.40;;;;;;;7.38;94.11;98563.28;5163138;23;20639;-87
2024/02/14 06:31:47;;;;;;;8.18;4.90;;;;;;;7.39;93.35;98571.00;5161948;23;20214;-87
2024/02/14 06:33:50;;;;;;;10.13;6.18;;;;;;;7.41;94.15;98571.75;5163398;23;20173;-88
2024/02/14 06:35:54;;;;;;;8.55;5.43;;;;;;;7.45;93.17;98569.88;5161993;23;20180;-87
2024/02/14 06:37:57;;;;;;;7.10;5.55;;;;;;;7.46;93.02;98567.19;5136531;23;20170;-87
2024/02/14 06:40:08;;;;;;;7.32;4.80;;;;;;;7.49;94.13;98564.44;5163362;23;20191;-87
2024/02/14 06:42:11;;;;;;;9.88;6.20;;;;;;;7.53;93.45;98568.56;5138993;23;20226;-87
2024/02/14 06:44:15;;;;;;;10.00;5.57;;;;;;;7.55;94.93;98571.94;5137688;23;20181;-87
2024/02/14 06:46:18;;;;;;;7.15;5.10;;;;;;;7.59;94.08;98576.03;5135725;23;20176;-88
2024/02/14 06:48:24;;;;;;;7.15;4.45;;;;;;;7.67;94.16;98577.38;5138224;23;20214;-87
2024/02/14 06:50:29;;;;;;;7.80;3.85;;;;;;;7.77;91.98;98586.38;5163747;23;20180;-88
2024/02/14 06:52:33;;;;;;;6.38;3.90;;;;;;;7.86;92.85;98590.28;5138770;23;20641;-88
2024/02/14 06:54:36;;;;;;;8.13;5.70;;;;;;;7.89;92.00;98579.72;5190445;22;20173;-88
2024/02/14 06:56:39;;;;;;;13.73;11.57;;;;;;;7.89;92.90;98585.75;5163299;23;20178;-88
2024/02/14 06:58:43;;;;;;;11.18;7.82;;;;;;;7.88;92.02;98586.69;5188226;22;20245;-88
2024/02/14 07:00:49;;;;;;;9.80;7.57;;;;;;;7.87;93.13;98590.19;5138561;23;20172;-88
2024/02/14 07:02:53;;;;;;;9.88;6.47;;;;;;;7.87;93.35;98586.78;5138611;23;20178;-89
2024/02/14 07:05:02;;;;;;;9.00;6.32;;;;;;;7.87;94.27;98597.16;5162735;23;20181;-88
2024/02/14 07:07:07;;;;;;;9.52;6.88;;;;;;;7.86;93.20;98598.06;5136292;23;20212;-88
2024/02/14 07:09:11;;;;;;;9.32;7.10;;;;;;;7.84;93.81;98585.16;5138494;23;20204;-88
2024/02/14 07:11:16;;;;;;;9.63;5.60;;;;;;;7.82;93.25;98589.59;5137196;23;20210;-88
2024/02/14 07:13:18;;;;;;;8.05;4.68;;;;;;;7.80;92.14;98594.00;5162329;23;20257;-88
2024/02/14 07:15:22;;;;;;;9.35;5.60;;;;;;;7.84;92.09;98597.31;5135685;23;20229;-87
2024/02/14 07:17:26;;;;;;;7.72;5.40;;;;;;;7.84;91.67;98594.72;5135573;23;20186;-88
2024/02/14 07:19:29;;;;;;;7.13;5.28;;;;;;;7.83;92.58;98600.81;5189256;22;20649;-87
2024/02/14 07:21:34;;;;;;;8.73;5.65;;;;;;;7.87;93.38;98594.56;5138022;23;20174;-88
2024/02/14 07:23:37;;;;;;;23.52;15.85;;;;;;;7.89;93.02;98597.91;5162506;23;20711;-88
2024/02/14 07:25:40;;;;;;;12.00;8.48;;;;;;;7.89;92.85;98587.53;5162567;23;20219;-87
2024/02/14 07:27:45;;;;;;;11.10;8.25;;;;;;;7.92;93.62;98592.56;5162433;23;20176;-84
2024/02/14 07:29:49;;;;;;;10.30;8.02;;;;;;;7.93;93.73;98597.69;5136315;23;20174;-84
2024/02/14 07:31:54;;;;;;;8.38;5.75;;;;;;;7.95;93.46;98592.41;5160916;23;20174;-84
2024/02/14 07:33:58;;;;;;;17.98;11.30;;;;;;;7.95;93.63;98600.19;5162663;23;20204;-84
2024/02/14 07:36:02;;;;;;;9.02;6.82;;;;;;;7.96;93.10;98605.31;5162532;23;20176;-84
2024/02/14 07:38:05;;;;;;;13.55;8.55;;;;;;;7.97;94.90;98605.25;5162599;23;20199;-84
2024/02/14 07:40:10;;;;;;;12.70;6.47;;;;;;;7.99;95.15;98605.16;5162084;23;20185;-84
2024/02/14 07:42:31;;;;;;;9.43;6.15;;;;;;;8.00;95.42;98612.06;5161567;23;20263;-84
2024/02/14 07:44:34;;;;;;;8.15;6.35;;;;;;;7.99;94.80;98606.00;5137775;23;20201;-84
2024/02/14 07:46:38;;;;;;;8.45;6.18;;;;;;;8.01;95.83;98619.75;5160461;23;20178;-84
2024/02/14 07:48:41;;;;;;;17.30;8.45;;;;;;;8.00;94.47;98615.47;5162205;23;20280;-84
2024/02/14 07:50:45;;;;;;;8.55;6.60;;;;;;;7.97;95.33;98623.41;5137998;23;20188;-84
2024/02/14 07:52:48;;;;;;;10.23;6.10;;;;;;;7.97;94.57;98620.81;5162881;23;20181;-84
2024/02/14 07:54:54;;;;;;;11.82;7.25;;;;;;;7.97;94.73;98617.41;5162896;23;20178;-84
2024/02/14 07:56:58;;;;;;;11.35;7.15;;;;;;;8.02;94.71;98613.63;5162462;23;20211;-84
2024/02/14 07:59:01;;;;;;;12.05;6.82;;;;;;;8.09;95.83;98621.97;5137067;23;20180;-84
2024/02/14 08:01:05;;;;;;;12.32;7.93;;;;;;;8.17;96.28;98630.25;5189487;22;20785;-84
2024/02/14 08:03:08;;;;;;;11.93;8.90;;;;;;;8.22;94.65;98626.50;5137647;23;20644;-84
2024/02/14 08:05:11;;;;;;;10.85;7.50;;;;;;;8.27;95.28;98632.31;5137085;23;20521;-84
2024/02/14 08:07:14;;;;;;;12.40;7.60;;;;;;;8.36;95.62;98629.25;5187407;22;20552;-84
2024/02/14 08:09:18;;;;;;;11.05;7.70;;;;;;;8.44;94.89;98636.66;5162003;23;20193;-83
2024/02/14 08:11:23;;;;;;;14.27;7.65;;;;;;;8.47;95.06;98632.97;5138074;23;20196;-83
2024/02/14 08:13:26;;;;;;;10.70;7.25;;;;;;;8.56;94.32;98634.25;5138198;23;20696;-84
2024/02/14 08:15:30;;;;;;;11.85;8.05;;;;;;;8.65;94.63;98641.59;5136107;23;20253;-84
2024/02/14 08:17:34;;;;;;;11.73;7.80;;;;;;;8.66;93.98;98643.25;5159044;23;20209;-84
2024/02/14 08:19:38;;;;;;;12.23;8.55;;;;;;;8.69;93.68;98658.69;5161807;23;20256;-84
2024/02/14 08:21:42;;;;;;;13.68;9.65;;;;;;;8.78;95.00;98653.00;5136538;23;20193;-84
2024/02/14 08:23:45;;;;;;;14.30;9.88;;;;;;;8.86;94.49;98654.31;5160616;23;20191;-84
2024/02/14 08:25:49;;;;;;;15.13;10.90;;;;;;;8.92;96.07;98647.94;5162619;23;20422;-84
2024/02/14 08:27:53;;;;;;;13.40;9.60;;;;;;;8.94;94.29;98649.53;5136792;23;20177;-84
2024/02/14 08:29:57;;;;;;;18.88;9.07;;;;;;;8.97;94.14;98645.00;5161580;23;20197;-84
2024/02/14 08:32:00;;;;;;;12.98;9.15;;;;;;;9.04;94.00;98646.38;5162163;23;20179;-84
2024/02/14 08:34:03;;;;;;;10.65;7.20;;;;;;;9.13;93.16;98645.88;5137950;23;20189;-84
2024/02/14 08:36:08;;;;;;;17.63;7.18;;;;;;;9.20;92.56;98631.63;5136696;23;20571;-88
2024/02/14 08:38:12;;;;;;;8.65;5.45;;;;;;;9.30;92.09;98637.97;5188671;22;20169;-84
2024/02/14 08:40:15;;;;;;;11.75;7.95;;;;;;;9.34;91.49;98647.31;5137298;23;20650;-84
2024/02/14 08:42:19;;;;;;;14.43;8.18;;;;;;;9.43;92.62;98647.66;5137233;23;20177;-84
2024/02/14 08:44:24;;;;;;;13.57;8.32;;;;;;;9.52;91.46;98651.53;5161957;23;20177;-84
2024/02/14 08:46:28;;;;;;;8.98;6.63;;;;;;;9.60;91.75;98650.16;5161896;23;20689;-84
2024/02/14 08:48:34;;;;;;;11.43;7.25;;;;;;;9.69;91.79;98649.63;5136186;23;20175;-84
2024/02/14 08:50:38;;;;;;;15.48;10.82;;;;;;;9.77;91.31;98651.81;5138012;23;20239;-84
2024/02/14 08:52:40;;;;;;;16.58;9.05;;;;;;;9.83;90.07;98656.69;5137551;23;20182;-84
2024/02/14 08:54:43;;;;;;;11.38;6.68;;;;;;;9.87;89.44;98654.66;5161813;23;20182;-85
2024/02/14 08:56:47;;;;;;;22.00;13.73;;;;;;;9.92;89.19;98660.47;5161951;23;20223;-84
2024/02/14 08:58:50;;;;;;;13.00;8.63;;;;;;;10.00;89.21;98657.47;5185250;22;20666;-84
2024/02/14 09:00:54;;;;;;;9.20;5.70;;;;;;;10.03;88.18;98654.69;5161826;23;20614;-84
2024/02/14 09:03:11;;;;;;;8.57;5.68;;;;;;;10.03;88.12;98657.28;5161150;23;20920;-84
2024/02/14 09:05:16;;;;;;;9.38;6.63;;;;;;;10.05;87.43;98655.41;5137443;23;20206;-84
2024/02/14 09:07:19;;;;;;;11.73;7.07;;;;;;;10.12;88.04;98662.81;5161858;23;20162;-84
2024/02/14 09:09:23;;;;;;;12.10;9.35;;;;;;;10.21;88.13;98649.25;5135740;23;20620;-84
2024/02/14 09:11:26;;;;;;;11.73;8.15;;;;;;;10.32;89.19;98649.44;5186796;22;20172;-84
2024/02/14 09:13:29;;;;;;;15.13;9.60;;;;;;;10.43;90.12;98641.81;5162648;23;20255;-84
2024/02/14 09:15:32;;;;;;;15.70;8.87;;;;;;;10.53;89.86;98651.63;5137304;23;20573;-84
2024/02/14 09:17:38;;;;;;;14.63;9.77;;;;;;;10.64;88.85;98656.22;5161007;23;21115;-84
2024/02/14 09:19:41;;;;;;;14.77;9.67;;;;;;;10.75;88.78;98659.00;5161955;23;20564;-84
2024/02/14 09:21:45;;;;;;;14.70;8.13;;;;;;;10.83;88.31;98655.03;5137870;23;20569;-84
2024/02/14 09:23:48;;;;;;;6.37;4.40;;;;;;;10.86;84.32;98660.88;5138094;23;20588;-84
2024/02/14 09:25:51;;;;;;;6.10;4.23;;;;;;;10.90;84.52;98666.78;5161450;23;20626;-84
2024/02/14 09:27:54;;;;;;;5.30;3.90;;;;;;;10.97;85.40;98663.66;5137912;23;21112;-84
2024/02/14 09:29:58;;;;;;;6.80;4.13;;;;;;;11.02;84.12;98668.63;5136652;23;20671;-84
2024/02/14 09:32:01;;;;;;;5.10;3.60;;;;;;;11.04;82.94;98666.78;5136914;23;20596;-84
2024/02/14 09:34:05;;;;;;;6.40;3.70;;;;;;;11.04;82.10;98670.22;5162976;23;20568;-83
2024/02/14 09:36:09;;;;;;;7.60;3.80;;;;;;;11.08;83.17;98674.31;5162473;23;20579;-84
2024/02/14 09:38:13;;;;;;;5.60;3.75;;;;;;;11.12;82.82;98667.97;5163052;23;20611;-84
2024/02/14 09:40:16;;;;;;;6.40;3.80;;;;;;;11.14;83.26;98666.13;5138832;23;20182;-84
2024/02/14 09:42:25;;;;;;;6.60;4.13;;;;;;;11.19;82.91;98668.44;5137819;23;20605;-84
2024/02/14 09:44:29;;;;;;;6.53;4.20;;;;;;;11.24;82.22;98666.38;5163458;23;20621;-84
2024/02/14 09:46:33;;;;;;;6.50;3.50;;;;;;;11.29;82.98;98665.19;5162378;23;20623;-84
2024/02/14 09:48:37;;;;;;;5.60;3.77;;;;;;;11.34;81.75;98661.31;5188813;22;21065;-84
2024/02/14 09:50:42;;;;;;;10.27;6.57;;;;;;;11.41;81.41;98667.00;5163662;23;20691;-84
2024/02/14 09:52:48;;;;;;;12.93;7.10;;;;;;;11.40;80.75;98658.34;5164029;23;20580;-83
2024/02/14 09:54:52;;;;;;;14.03;7.40;;;;;;;11.44;81.63;98662.44;5164004;23;20584;-84